createdAt,value
2018-12-13T00:01:36.692Z,1.60
2018-12-13T00:04:05.016Z,1.71
2018-12-13T00:06:33.555Z,1.64
2018-12-13T00:09:01.879Z,1.70
2018-12-13T00:11:30.152Z,1.91
2018-12-13T00:14:08.200Z,1.76
2018-12-13T00:16:36.400Z,1.94
2018-12-13T00:24:54.820Z,2.07
2018-12-13T00:27:23.017Z,2.03
2018-12-13T00:29:51.192Z,1.98
2018-12-13T00:32:19.553Z,1.99
2018-12-13T00:34:47.742Z,2.00
2018-12-13T00:37:15.944Z,2.12
2018-12-13T00:39:44.104Z,2.29
2018-12-13T00:42:12.290Z,2.01
2018-12-13T00:44:40.412Z,2.10
2018-12-13T00:47:08.617Z,2.15
2018-12-13T00:49:36.842Z,2.17
2018-12-13T00:52:05.124Z,2.19
2018-12-13T00:54:33.333Z,2.22
2018-12-13T00:57:01.521Z,2.18
2018-12-13T00:59:30.135Z,2.16
2018-12-13T01:01:58.406Z,2.22
2018-12-13T01:04:26.622Z,2.15
2018-12-13T01:06:54.793Z,2.13
2018-12-13T01:09:22.928Z,2.15
2018-12-13T01:11:51.093Z,2.15
2018-12-13T01:14:19.231Z,2.14
2018-12-13T01:16:47.509Z,2.13
2018-12-13T01:19:15.687Z,2.43
2018-12-13T01:21:43.900Z,2.13
2018-12-13T01:24:12.152Z,2.19
2018-12-13T01:26:40.927Z,2.11
2018-12-13T01:29:09.117Z,2.15
2018-12-13T01:31:37.332Z,2.14
2018-12-13T01:34:05.451Z,2.37
2018-12-13T01:36:33.633Z,2.47
2018-12-13T01:39:01.764Z,2.44
2018-12-13T01:41:30.048Z,2.52
2018-12-13T01:43:58.268Z,2.43
2018-12-13T01:46:26.452Z,2.29
2018-12-13T01:48:54.572Z,2.18
2018-12-13T01:51:22.807Z,2.03
2018-12-13T01:53:50.981Z,1.99
2018-12-13T01:56:19.270Z,1.98
2018-12-13T01:58:47.519Z,1.74
2018-12-13T02:01:15.666Z,1.84
2018-12-13T02:03:43.864Z,1.76
2018-12-13T02:06:12.003Z,1.77
2018-12-13T02:08:40.130Z,1.71
2018-12-13T02:11:08.392Z,1.77
2018-12-13T02:13:36.516Z,1.59
2018-12-13T02:16:04.800Z,1.52
2018-12-13T02:18:32.984Z,1.37
2018-12-13T02:21:02.215Z,1.23
2018-12-13T02:23:30.431Z,1.35
2018-12-13T02:25:58.599Z,1.28
2018-12-13T02:28:26.872Z,1.17
2018-12-13T02:30:55.070Z,1.16
2018-12-13T02:33:29.597Z,1.10
2018-12-13T02:35:57.727Z,0.94
2018-12-13T02:38:25.982Z,0.83
2018-12-13T02:40:54.266Z,0.92
2018-12-13T02:43:22.427Z,0.84
2018-12-13T02:45:50.547Z,0.68
2018-12-13T02:48:18.706Z,0.74
2018-12-13T02:50:46.974Z,0.70
2018-12-13T02:53:15.135Z,0.66
2018-12-13T02:55:43.404Z,0.38
2018-12-13T02:58:11.578Z,0.48
2018-12-13T03:00:39.730Z,0.58
2018-12-13T03:03:07.893Z,0.17
2018-12-13T03:05:36.028Z,0.25
2018-12-13T03:08:04.286Z,0.28
2018-12-13T03:10:32.478Z,0.42
2018-12-13T03:13:00.698Z,0.33
2018-12-13T03:15:28.935Z,0.34
2018-12-13T03:17:57.164Z,0.06
2018-12-13T03:20:25.385Z,0.00
2018-12-13T03:24:18.124Z,-0.02
2018-12-13T03:26:46.290Z,-0.02
2018-12-13T03:29:14.396Z,-0.06
2018-12-13T03:31:42.643Z,0.29
2018-12-13T03:34:10.913Z,0.36
2018-12-13T03:36:39.037Z,0.21
2018-12-13T03:39:08.132Z,0.22
2018-12-13T03:41:36.360Z,0.54
2018-12-13T03:44:04.948Z,0.96
2018-12-13T03:46:33.104Z,0.70
2018-12-13T03:49:01.306Z,0.25
2018-12-13T03:51:29.622Z,0.20
2018-12-13T03:53:57.797Z,0.24
2018-12-13T03:56:26.050Z,0.39
2018-12-13T03:58:54.197Z,0.02
2018-12-13T04:01:22.326Z,0.11
2018-12-13T04:03:50.476Z,0.36
2018-12-13T04:06:18.681Z,0.31
2018-12-13T04:08:46.852Z,-0.13
2018-12-13T04:11:15.067Z,0.53
2018-12-13T04:13:43.348Z,0.71
2018-12-13T04:16:11.496Z,-0.01
2018-12-13T04:18:39.616Z,-0.06
2018-12-13T04:21:07.832Z,0.08
2018-12-13T04:23:36.014Z,-0.30
2018-12-13T04:26:04.243Z,-0.26
2018-12-13T04:28:32.445Z,-0.28
2018-12-13T04:31:00.591Z,-0.29
2018-12-13T04:33:28.806Z,-0.06
2018-12-13T04:35:57.048Z,-0.24
2018-12-13T04:38:25.201Z,-0.15
2018-12-13T04:40:53.373Z,-0.51
2018-12-13T04:43:21.676Z,-0.54
2018-12-13T04:45:49.967Z,-0.49
2018-12-13T04:48:18.180Z,-0.41
2018-12-13T04:50:46.302Z,-0.41
2018-12-13T04:53:14.464Z,-0.46
2018-12-13T04:55:42.599Z,-0.18
2018-12-13T04:58:10.754Z,-0.28
2018-12-13T05:00:38.893Z,-0.23
2018-12-13T05:03:07.044Z,-0.42
2018-12-13T05:05:35.235Z,-0.61
2018-12-13T05:08:03.439Z,-0.78
2018-12-13T05:10:42.792Z,-0.71
2018-12-13T05:13:12.114Z,-0.74
2018-12-13T05:15:40.338Z,-0.61
2018-12-13T05:18:08.500Z,-0.25
2018-12-13T05:20:36.660Z,-0.66
2018-12-13T05:23:04.969Z,-0.65
2018-12-13T05:25:33.224Z,-0.53
2018-12-13T05:28:01.449Z,-0.31
2018-12-13T05:30:29.688Z,-0.49
2018-12-13T05:32:57.963Z,-0.72
2018-12-13T05:35:26.165Z,-0.63
2018-12-13T05:37:54.301Z,-0.51
2018-12-13T05:40:22.588Z,-0.28
2018-12-13T05:42:50.862Z,-0.26
2018-12-13T05:45:20.013Z,-0.15
2018-12-13T05:47:48.369Z,-0.16
2018-12-13T05:50:16.569Z,0.14
2018-12-13T05:52:44.804Z,-0.01
2018-12-13T05:55:13.020Z,-0.02
2018-12-13T05:57:41.244Z,0.15
2018-12-13T06:00:10.446Z,0.02
2018-12-13T06:02:38.767Z,0.12
2018-12-13T06:05:07.622Z,0.10
2018-12-13T06:07:35.819Z,0.20
2018-12-13T06:10:04.419Z,0.32
2018-12-13T06:12:32.673Z,0.21
2018-12-13T06:15:00.801Z,0.34
2018-12-13T06:17:29.091Z,0.43
2018-12-13T06:19:57.240Z,0.48
2018-12-13T06:22:25.376Z,0.56
2018-12-13T06:24:53.563Z,0.61
2018-12-13T06:27:21.740Z,0.70
2018-12-13T06:29:50.078Z,0.69
2018-12-13T06:32:18.267Z,0.77
2018-12-13T06:34:46.396Z,0.81
2018-12-13T06:37:14.635Z,0.83
2018-12-13T06:39:42.776Z,0.80
2018-12-13T06:42:11.013Z,0.87
2018-12-13T06:44:39.263Z,0.81
2018-12-13T06:47:07.765Z,0.83
2018-12-13T06:49:35.956Z,0.90
2018-12-13T06:52:04.143Z,0.95
2018-12-13T06:54:32.278Z,0.95
2018-12-13T06:57:00.689Z,0.97
2018-12-13T06:59:28.942Z,1.02
2018-12-13T07:01:57.164Z,1.03
2018-12-13T07:04:25.459Z,0.96
2018-12-13T07:06:53.725Z,1.06
2018-12-13T07:09:21.856Z,1.07
2018-12-13T07:11:50.052Z,1.04
2018-12-13T07:14:18.184Z,1.03
2018-12-13T07:16:46.405Z,1.02
2018-12-13T07:19:14.579Z,1.12
2018-12-13T07:21:42.703Z,1.16
2018-12-13T07:24:10.872Z,1.23
2018-12-13T07:26:39.164Z,1.06
2018-12-13T07:29:07.388Z,1.21
2018-12-13T07:31:35.689Z,1.04
2018-12-13T07:34:03.912Z,1.13
2018-12-13T07:36:32.103Z,1.19
2018-12-13T07:39:00.261Z,1.15
2018-12-13T07:41:28.421Z,1.13
2018-12-13T07:43:56.567Z,1.18
2018-12-13T07:46:24.996Z,1.17
2018-12-13T07:48:56.340Z,1.19
2018-12-13T07:51:23.548Z,1.15
2018-12-13T07:53:51.772Z,1.10
2018-12-13T07:56:19.952Z,1.03
2018-12-13T07:58:48.091Z,0.90
2018-12-13T08:01:16.276Z,1.01
2018-12-13T08:03:44.431Z,0.88
2018-12-13T08:06:12.610Z,0.95
2018-12-13T08:08:40.774Z,0.90
2018-12-13T08:11:09.030Z,1.05
2018-12-13T08:13:37.178Z,1.09
2018-12-13T08:16:05.437Z,0.95
2018-12-13T08:18:33.671Z,0.95
2018-12-13T08:21:01.897Z,1.05
2018-12-13T08:23:30.048Z,1.00
2018-12-13T08:25:58.307Z,1.06
2018-12-13T08:28:26.486Z,1.04
2018-12-13T08:30:54.647Z,1.01
2018-12-13T08:33:22.825Z,1.16
2018-12-13T08:35:51.180Z,1.15
2018-12-13T08:38:19.556Z,1.21
2018-12-13T08:40:47.849Z,1.19
2018-12-13T08:43:16.021Z,1.21
2018-12-13T08:45:44.309Z,1.20
2018-12-13T08:48:12.595Z,1.27
2018-12-13T08:50:40.809Z,1.36
2018-12-13T08:53:08.943Z,1.39
2018-12-13T08:58:27.624Z,1.39
2018-12-13T09:00:55.832Z,1.54
2018-12-13T09:03:24.076Z,1.57
2018-12-13T09:05:52.219Z,1.67
2018-12-13T09:08:20.359Z,1.75
2018-12-13T09:10:48.585Z,1.80
2018-12-13T09:13:16.713Z,1.71
2018-12-13T09:15:44.948Z,1.64
2018-12-13T09:18:13.230Z,1.63
2018-12-13T09:20:42.035Z,1.80
2018-12-13T09:23:10.325Z,1.61
2018-12-13T09:25:38.487Z,1.71
2018-12-13T09:28:06.797Z,1.58
2018-12-13T09:30:35.014Z,1.40
2018-12-13T09:33:15.898Z,1.50
2018-12-13T09:35:44.174Z,1.43
2018-12-13T09:38:12.412Z,1.57
2018-12-13T09:40:40.831Z,1.42
2018-12-13T09:43:09.126Z,1.58
2018-12-13T09:45:37.314Z,1.66
2018-12-13T09:48:05.551Z,1.67
2018-12-13T09:50:33.741Z,1.83
2018-12-13T09:53:01.919Z,1.82
2018-12-13T09:55:30.144Z,1.89
2018-12-13T09:57:58.472Z,2.03
2018-12-13T10:00:26.613Z,1.82
2018-12-13T10:02:54.836Z,1.85
2018-12-13T10:05:23.068Z,1.94
2018-12-13T10:07:51.263Z,2.08
2018-12-13T10:10:19.505Z,2.11
2018-12-13T10:12:47.679Z,2.27
2018-12-13T10:15:15.821Z,2.40
2018-12-13T10:17:43.971Z,2.35
2018-12-13T10:20:12.188Z,2.43
2018-12-13T10:22:40.412Z,2.19
2018-12-13T10:25:08.707Z,2.18
2018-12-13T10:27:36.937Z,2.35
2018-12-13T10:30:05.385Z,2.35
2018-12-13T10:32:33.515Z,2.35
2018-12-13T10:35:01.700Z,2.52
2018-12-13T10:37:29.940Z,2.22
2018-12-13T10:39:58.261Z,2.27
2018-12-13T10:42:26.516Z,2.30
2018-12-13T10:44:54.665Z,2.22
2018-12-13T10:47:22.801Z,2.19
2018-12-13T10:49:50.976Z,2.27
2018-12-13T10:52:20.118Z,2.21
2018-12-13T10:54:48.595Z,2.29
2018-12-13T10:57:16.741Z,2.34
2018-12-13T10:59:44.978Z,2.28
2018-12-13T11:02:18.471Z,2.38
2018-12-13T11:04:46.644Z,2.37
2018-12-13T11:07:14.811Z,2.46
2018-12-13T11:09:43.056Z,2.60
2018-12-13T11:12:11.230Z,2.65
2018-12-13T11:14:39.558Z,2.61
2018-12-13T11:17:07.714Z,2.75
2018-12-13T11:19:35.893Z,2.60
2018-12-13T11:22:04.138Z,2.62
2018-12-13T11:24:32.268Z,2.66
2018-12-13T11:27:11.730Z,2.61
2018-12-13T11:29:51.017Z,2.72
2018-12-13T11:32:19.187Z,2.62
2018-12-13T11:34:47.394Z,3.13
2018-12-13T11:37:15.516Z,2.94
2018-12-13T11:39:43.741Z,2.81
2018-12-13T11:42:11.900Z,3.04
2018-12-13T11:44:40.048Z,3.09
2018-12-13T11:47:08.228Z,2.94
2018-12-13T11:49:36.369Z,2.83
2018-12-13T11:52:04.689Z,2.76
2018-12-13T11:54:42.164Z,2.84
2018-12-13T11:57:10.510Z,2.86
2018-12-13T11:59:38.760Z,2.81
2018-12-13T12:02:07.141Z,2.82
2018-12-13T12:04:35.294Z,2.78
2018-12-13T12:07:03.580Z,2.75
2018-12-13T12:09:31.749Z,2.69
2018-12-13T12:12:00.080Z,2.65
2018-12-13T12:14:28.493Z,2.66
2018-12-13T12:16:56.715Z,2.65
2018-12-13T12:19:24.859Z,2.67
2018-12-13T12:21:53.088Z,2.57
2018-12-13T12:24:21.223Z,2.67
2018-12-13T12:26:49.416Z,2.72
2018-12-13T12:29:17.682Z,2.59
2018-12-13T12:31:45.895Z,2.68
2018-12-13T12:34:14.088Z,2.67
2018-12-13T12:36:42.279Z,2.78
2018-12-13T12:39:10.441Z,2.71
2018-12-13T12:41:38.678Z,2.49
2018-12-13T12:44:06.940Z,2.59
2018-12-13T12:46:35.191Z,2.58
2018-12-13T12:49:03.421Z,2.67
2018-12-13T12:51:31.677Z,2.72
2018-12-13T12:53:59.948Z,2.72
2018-12-13T12:56:28.160Z,2.73
2018-12-13T12:58:56.519Z,2.68
2018-12-13T13:01:24.856Z,2.68
2018-12-13T13:03:53.200Z,2.65
2018-12-13T13:06:21.348Z,2.65
2018-12-13T13:08:56.216Z,2.61
2018-12-13T13:11:24.401Z,2.65
2018-12-13T13:13:52.529Z,2.52
2018-12-13T13:16:20.685Z,2.61
2018-12-13T13:18:48.954Z,2.54
2018-12-13T13:21:17.162Z,2.62
2018-12-13T13:23:45.393Z,2.70
2018-12-13T13:26:13.595Z,2.75
2018-12-13T13:28:41.721Z,2.56
2018-12-13T13:31:09.879Z,2.51
2018-12-13T13:33:38.041Z,2.62
2018-12-13T13:36:06.262Z,2.60
2018-12-13T13:38:34.470Z,2.61
2018-12-13T13:41:02.808Z,2.72
2018-12-13T13:43:31.117Z,2.63
2018-12-13T13:45:59.285Z,2.61
2018-12-13T13:48:27.440Z,2.63
2018-12-13T13:50:55.731Z,2.77
2018-12-13T13:53:24.022Z,2.71
2018-12-13T13:55:52.211Z,2.67
2018-12-13T13:58:20.357Z,2.69
2018-12-13T14:00:48.592Z,2.61
2018-12-13T14:03:16.880Z,2.68
2018-12-13T14:05:44.995Z,2.69
2018-12-13T14:08:13.875Z,2.66
2018-12-13T14:10:42.028Z,2.67
2018-12-13T14:13:10.184Z,2.69
2018-12-13T14:15:38.428Z,2.69
2018-12-13T14:18:06.783Z,2.71
2018-12-13T14:20:34.932Z,2.65
2018-12-13T14:23:03.177Z,2.68
2018-12-13T14:25:31.311Z,2.69
2018-12-13T14:27:59.445Z,2.68
2018-12-13T14:30:28.020Z,2.72
2018-12-13T14:32:56.271Z,2.62
2018-12-13T14:35:24.505Z,2.63
2018-12-13T14:37:53.524Z,2.56
2018-12-13T14:40:21.736Z,2.68
2018-12-13T14:42:50.026Z,2.70
2018-12-13T14:45:18.445Z,2.68
2018-12-13T14:47:46.729Z,2.69
2018-12-13T14:50:14.981Z,2.68
2018-12-13T14:52:43.291Z,2.60
2018-12-13T14:55:11.585Z,2.65
2018-12-13T14:57:39.791Z,2.72
2018-12-13T15:00:10.769Z,2.62
2018-12-13T15:02:38.945Z,2.68
2018-12-13T15:05:07.444Z,2.69
2018-12-13T15:07:35.801Z,2.56
2018-12-13T15:10:05.083Z,2.64
2018-12-13T15:12:33.240Z,2.69
2018-12-13T15:15:01.424Z,2.63
2018-12-13T15:17:29.624Z,2.61
2018-12-13T15:19:57.831Z,2.70
2018-12-13T15:22:26.024Z,2.70
2018-12-13T15:24:54.223Z,2.71
2018-12-13T15:27:22.397Z,2.71
2018-12-13T15:29:50.761Z,2.74
2018-12-13T15:32:19.200Z,2.71
2018-12-13T15:34:47.382Z,2.70
2018-12-13T15:37:15.569Z,2.66
2018-12-13T15:39:43.700Z,2.72
2018-12-13T15:42:11.932Z,2.75
2018-12-13T15:44:40.250Z,2.69
2018-12-13T15:47:08.584Z,2.73
2018-12-13T15:49:36.998Z,2.71
2018-12-13T15:52:05.248Z,2.74
2018-12-13T15:54:33.504Z,2.72
2018-12-13T15:57:01.689Z,2.68
2018-12-13T15:59:29.932Z,2.77
2018-12-13T16:01:59.122Z,2.77
2018-12-13T16:04:27.321Z,2.83
2018-12-13T16:06:55.493Z,2.76
2018-12-13T16:09:23.690Z,2.78
2018-12-13T16:11:51.855Z,2.81
2018-12-13T16:14:20.118Z,2.81
2018-12-13T16:16:48.329Z,2.78
2018-12-13T16:19:16.560Z,2.71
2018-12-13T16:21:44.895Z,2.71
2018-12-13T16:24:13.448Z,2.72
2018-12-13T16:26:41.706Z,2.75
2018-12-13T16:29:09.881Z,2.71
2018-12-13T16:31:38.127Z,2.65
2018-12-13T16:34:06.362Z,2.76
2018-12-13T16:36:34.679Z,2.77
2018-12-13T16:39:04.093Z,2.71
2018-12-13T16:41:32.393Z,2.70
2018-12-13T16:44:00.741Z,2.70
2018-12-13T16:46:28.961Z,2.74
2018-12-13T16:48:57.218Z,2.70
2018-12-13T16:51:25.537Z,2.66
2018-12-13T16:53:53.878Z,2.68
2018-12-13T16:56:22.057Z,2.63
2018-12-13T16:58:50.203Z,2.61
2018-12-13T17:01:18.549Z,2.64
2018-12-13T17:03:46.802Z,2.65
2018-12-13T17:06:15.042Z,2.66
2018-12-13T17:08:43.412Z,2.69
2018-12-13T17:11:11.752Z,2.65
2018-12-13T17:13:40.295Z,2.60
2018-12-13T17:16:15.261Z,2.56
2018-12-13T17:18:58.730Z,2.60
2018-12-13T17:21:28.080Z,2.61
2018-12-13T17:23:56.220Z,2.65
2018-12-13T17:26:24.588Z,2.63
2018-12-13T17:28:52.767Z,2.68
2018-12-13T17:31:21.016Z,2.58
2018-12-13T17:33:51.233Z,2.53
2018-12-13T17:36:20.001Z,2.63
2018-12-13T17:38:48.209Z,2.59
2018-12-13T17:41:16.956Z,2.56
2018-12-13T17:43:45.761Z,2.58
2018-12-13T17:46:16.187Z,2.60
2018-12-13T17:48:48.225Z,2.56
2018-12-13T17:51:16.615Z,2.55
2018-12-13T17:53:44.933Z,2.51
2018-12-13T17:56:13.170Z,2.61
2018-12-13T17:58:41.527Z,2.61
2018-12-13T18:01:09.743Z,2.57
2018-12-13T18:03:37.867Z,2.38
2018-12-13T18:06:06.633Z,2.45
2018-12-13T18:08:34.874Z,2.47
2018-12-13T18:11:03.077Z,2.58
2018-12-13T18:13:31.417Z,2.46
2018-12-13T18:15:59.696Z,2.36
2018-12-13T18:18:27.983Z,2.39
2018-12-13T18:20:56.213Z,2.49
2018-12-13T18:23:24.785Z,2.46
2018-12-13T18:25:52.953Z,2.49
2018-12-13T18:28:21.141Z,2.47
2018-12-13T18:30:49.290Z,2.43
2018-12-13T18:33:17.534Z,2.51
2018-12-13T18:35:45.782Z,2.45
2018-12-13T18:38:13.925Z,2.45
2018-12-13T18:40:48.739Z,2.49
2018-12-13T18:43:16.994Z,2.55
2018-12-13T18:45:46.111Z,2.50
2018-12-13T18:48:14.276Z,2.45
2018-12-13T18:50:42.471Z,2.43
2018-12-13T18:53:10.792Z,2.41
2018-12-13T18:55:38.955Z,2.45
2018-12-13T18:58:07.224Z,2.30
2018-12-13T19:03:15.464Z,2.48
2018-12-13T19:05:43.718Z,2.39
2018-12-13T19:08:11.960Z,2.42
2018-12-13T19:10:41.980Z,2.45
2018-12-13T19:13:10.440Z,2.47
2018-12-13T19:15:38.748Z,2.37
2018-12-13T19:18:07.191Z,2.43
2018-12-13T19:20:52.935Z,2.43
2018-12-13T19:23:21.300Z,2.48
2018-12-13T19:25:49.489Z,2.39
2018-12-13T19:28:17.716Z,2.41
2018-12-13T19:30:45.921Z,2.31
2018-12-13T19:33:14.078Z,2.43
2018-12-13T19:35:42.260Z,2.38
2018-12-13T19:38:10.559Z,2.40
2018-12-13T19:40:38.720Z,2.41
2018-12-13T19:43:06.999Z,2.43
2018-12-13T19:45:35.288Z,2.33
2018-12-13T19:48:03.435Z,2.29
2018-12-13T19:50:31.600Z,2.43
2018-12-13T19:52:59.799Z,2.38
2018-12-13T19:55:28.147Z,2.34
2018-12-13T19:57:56.315Z,2.34
2018-12-13T20:00:24.445Z,2.35
2018-12-13T20:02:52.740Z,2.37
2018-12-13T20:05:21.909Z,2.41
2018-12-13T20:07:50.169Z,2.23
2018-12-13T20:10:18.496Z,2.23
2018-12-13T20:12:46.665Z,2.29
2018-12-13T20:15:14.855Z,2.24
2018-12-13T20:17:43.037Z,2.16
2018-12-13T20:20:11.200Z,2.22
2018-12-13T20:22:39.469Z,2.23
2018-12-13T20:25:08.748Z,2.10
2018-12-13T20:27:36.894Z,2.19
2018-12-13T20:30:06.652Z,2.10
2018-12-13T20:32:34.953Z,2.18
2018-12-13T20:35:04.605Z,2.16
2018-12-13T20:37:33.081Z,2.21
2018-12-13T20:40:01.264Z,2.24
2018-12-13T20:42:29.653Z,2.23
2018-12-13T20:44:57.806Z,2.25
2018-12-13T20:47:26.019Z,2.22
2018-12-13T20:49:54.256Z,2.03
2018-12-13T20:52:22.495Z,2.11
2018-12-13T20:54:50.649Z,2.14
2018-12-13T20:57:18.809Z,2.12
2018-12-13T20:59:46.952Z,2.11
2018-12-13T21:02:15.188Z,2.09
2018-12-13T21:04:43.356Z,1.97
2018-12-13T21:07:16.998Z,2.10
2018-12-13T21:09:45.172Z,2.01
2018-12-13T21:12:13.341Z,2.02
2018-12-13T21:14:41.492Z,1.98
2018-12-13T21:17:09.805Z,2.10
2018-12-13T21:19:37.987Z,2.13
2018-12-13T21:22:06.230Z,1.98
2018-12-13T21:24:34.572Z,2.04
2018-12-13T21:27:03.308Z,2.03
2018-12-13T21:29:31.620Z,2.12
2018-12-13T21:31:59.865Z,2.10
2018-12-13T21:34:28.053Z,2.05
2018-12-13T21:36:56.296Z,2.07
2018-12-13T21:39:30.677Z,2.13
2018-12-13T21:41:59.804Z,2.12
2018-12-13T21:44:28.066Z,2.13
2018-12-13T21:46:56.211Z,2.15
2018-12-13T21:49:24.706Z,1.92
2018-12-13T21:51:52.954Z,2.08
2018-12-13T21:54:21.254Z,2.10
2018-12-13T21:56:49.773Z,1.94
2018-12-13T21:59:17.944Z,2.05
2018-12-13T22:01:46.125Z,2.04
2018-12-13T22:04:14.368Z,2.07
2018-12-13T22:06:42.567Z,2.08
2018-12-13T22:09:10.890Z,2.01
2018-12-13T22:11:39.208Z,2.05
2018-12-13T22:14:07.396Z,1.96
2018-12-13T22:16:35.617Z,1.83
2018-12-13T22:19:03.915Z,1.88
2018-12-13T22:21:32.108Z,1.88
2018-12-13T22:24:00.285Z,1.88
2018-12-13T22:26:28.543Z,1.99
2018-12-13T22:28:56.720Z,1.89
2018-12-13T22:31:24.882Z,1.86
2018-12-13T22:33:53.041Z,1.88
2018-12-13T22:36:21.306Z,1.89
2018-12-13T22:38:49.554Z,1.81
2018-12-13T22:41:17.796Z,1.82
2018-12-13T22:43:46.205Z,1.84
2018-12-13T22:46:14.356Z,1.76
2018-12-13T22:48:42.691Z,1.77
2018-12-13T22:51:10.923Z,1.92
2018-12-13T22:53:39.167Z,1.87
2018-12-13T22:56:07.361Z,2.03
2018-12-13T22:58:35.529Z,1.84
2018-12-13T23:01:03.836Z,1.77
2018-12-13T23:03:31.990Z,2.08
2018-12-13T23:06:00.220Z,1.90
2018-12-13T23:08:28.530Z,1.73
2018-12-13T23:10:57.020Z,1.70
2018-12-13T23:13:25.278Z,1.95
2018-12-13T23:15:53.513Z,1.81
2018-12-13T23:18:21.660Z,1.86
2018-12-13T23:20:49.816Z,1.92
2018-12-13T23:23:18.048Z,1.83
2018-12-13T23:25:46.318Z,1.84
2018-12-13T23:28:14.464Z,1.76
2018-12-13T23:30:42.628Z,1.79
2018-12-13T23:33:10.795Z,1.79
2018-12-13T23:35:38.980Z,1.83
2018-12-13T23:38:07.286Z,1.78
2018-12-13T23:40:35.524Z,1.78
2018-12-13T23:43:03.762Z,1.71
2018-12-13T23:45:31.967Z,1.69
2018-12-13T23:48:00.102Z,1.76
2018-12-13T23:50:28.286Z,1.77
2018-12-13T23:52:56.525Z,1.79
2018-12-13T23:55:24.807Z,1.57
2018-12-13T23:57:53.207Z,1.74
